createdAt,value
2022-09-28T00:03:25.000Z,0.0
2022-09-28T00:33:28.000Z,0.0
2022-09-28T01:03:31.000Z,0.0
2022-09-28T01:33:35.000Z,0.0
2022-09-28T02:03:37.000Z,0.0
2022-09-28T02:33:38.000Z,0.0
2022-09-28T03:03:40.934Z,0
2022-09-28T03:33:48.000Z,0.0
2022-09-28T04:03:54.000Z,0.0
2022-09-28T04:33:56.000Z,0.0
2022-09-28T05:04:07.000Z,0.0
2022-09-28T05:34:12.469Z,4
2022-09-28T06:04:16.000Z,7.0
2022-09-28T06:34:19.000Z,26.0
2022-09-28T07:04:21.000Z,90.0
2022-09-28T07:34:27.000Z,56.0
2022-09-28T08:04:31.000Z,67.0
2022-09-28T08:34:35.000Z,150.0
2022-09-28T09:04:38.000Z,131.0
2022-09-28T09:34:39.000Z,142.0
2022-09-28T10:04:41.685Z,231
2022-09-28T10:34:47.000Z,269.0
2022-09-28T11:05:01.000Z,261.0
2022-09-28T11:35:04.000Z,223.0
2022-09-28T12:05:04.000Z,224.0
2022-09-28T12:35:07.000Z,185.0
2022-09-28T13:05:11.000Z,172.0
2022-09-28T13:35:15.000Z,164.0
2022-09-28T14:05:25.000Z,141.0
2022-09-28T14:35:26.000Z,159.0
2022-09-28T15:05:36.000Z,123.0
2022-09-28T15:35:39.000Z,76.0
2022-09-28T16:05:43.000Z,63.0
2022-09-28T16:35:50.000Z,26.0
2022-09-28T17:05:52.000Z,2.0
2022-09-28T17:35:56.000Z,0.0
2022-09-28T17:36:06.000Z,0.0
2022-09-28T17:36:16.000Z,0.0
2022-09-28T17:36:27.000Z,0.0
2022-09-28T17:36:37.000Z,0.0
2022-09-28T17:36:48.000Z,0.0
2022-09-28T17:36:58.000Z,0.0
2022-09-28T17:37:09.000Z,0.0
2022-09-28T18:08:33.000Z,0.0
2022-09-28T18:38:35.000Z,0.0
2022-09-28T19:08:40.000Z,0.0
2022-09-28T19:38:46.000Z,0.0
2022-09-28T20:08:50.000Z,0.0
2022-09-28T20:38:55.000Z,1.0
2022-09-28T21:09:01.000Z,1.0
2022-09-28T21:39:06.000Z,2.0
2022-09-28T22:09:21.000Z,2.0
2022-09-28T22:39:22.247Z,1
2022-09-28T23:09:23.000Z,1.0
2022-09-28T23:39:25.000Z,0.0
